Time;durP1;ratioP1;P1;durP2;ratioP2;P2;SDS_P1;SDS_P2;PMS_P1;PMS_P2;Temp;Humidity;BMP_temperature;BMP_pressure;BME280_temperature;BME280_humidity;BME280_pressure;Samples;Min_cycle;Max_cycle;Signal;HPM_P1;HPM_P2
2022/04/26 03:36:41;;;;;;;14.75;9.05;;;6.90;99.90;;;;;;5065449;28;20068;-67
2022/04/26 03:39:07;;;;;;;;;;;6.90;99.90;;;;;;5063866;28;20079;-67
2022/04/26 03:41:33;;;;;;;14.05;8.18;;;6.90;99.90;;;;;;5065150;28;19917;-67
2022/04/26 03:43:59;;;;;;;18.40;11.63;;;6.90;99.90;;;;;;5065604;28;20041;-67
2022/04/26 03:46:25;;;;;;;19.52;12.32;;;6.90;99.90;;;;;;5065968;28;20052;-67
2022/04/26 03:48:51;;;;;;;;;;;6.90;99.90;;;;;;5065612;28;20039;-67
2022/04/26 03:51:16;;;;;;;16.38;10.90;;;6.90;99.90;;;;;;5065173;28;20371;-67
2022/04/26 03:53:42;;;;;;;21.20;12.77;;;6.90;99.90;;;;;;5063059;28;20535;-67
2022/04/26 03:56:08;;;;;;;;;;;6.90;99.90;;;;;;5069194;28;20059;-67
2022/04/26 03:58:34;;;;;;;25.45;15.75;;;6.90;99.90;;;;;;5060800;28;20284;-67
2022/04/26 04:01:00;;;;;;;27.95;16.35;;;6.90;99.90;;;;;;5066092;28;20036;-66
2022/04/26 04:03:27;;;;;;;24.85;14.75;;;6.90;99.90;;;;;;5057080;28;20504;-65
2022/04/26 04:05:53;;;;;;;24.17;15.73;;;6.90;99.90;;;;;;5052352;28;20139;-65
2022/04/26 04:08:18;;;;;;;;;;;6.80;99.90;;;;;;5049543;28;20120;-67
2022/04/26 04:10:45;;;;;;;36.50;14.55;;;6.90;99.90;;;;;;5050041;28;19917;-64
2022/04/26 04:13:10;;;;;;;28.48;16.77;;;6.80;99.90;;;;;;5059735;28;20036;-67
2022/04/26 04:15:36;;;;;;;;;;;6.80;99.90;;;;;;5051855;28;20044;-66
2022/04/26 04:18:02;;;;;;;41.83;19.98;;;6.70;99.90;;;;;;5053972;28;19959;-66
2022/04/26 04:20:29;;;;;;;29.05;17.55;;;6.70;99.90;;;;;;5054587;28;20053;-66
2022/04/26 04:22:56;;;;;;;31.25;17.90;;;6.70;99.90;;;;;;5046539;28;20634;-66
2022/04/26 04:25:22;;;;;;;33.85;20.80;;;6.70;99.90;;;;;;5047962;28;20124;-66
2022/04/26 04:27:47;;;;;;;;;;;6.70;99.90;;;;;;5047196;28;20237;-65
2022/04/26 04:30:13;;;;;;;33.40;19.10;;;6.60;99.90;;;;;;5051061;28;19978;-66
2022/04/26 04:32:39;;;;;;;;;;;6.70;99.90;;;;;;5056429;28;20508;-65
2022/04/26 04:35:06;;;;;;;34.22;19.13;;;6.70;99.90;;;;;;5050520;28;20483;-67
2022/04/26 04:37:32;;;;;;;35.72;19.25;;;6.60;99.90;;;;;;5056463;28;20044;-65
2022/04/26 04:39:57;;;;;;;;;;;6.70;99.90;;;;;;5054573;28;20047;-63
2022/04/26 04:42:23;;;;;;;34.88;19.65;;;6.70;99.90;;;;;;5044347;28;20050;-66
2022/04/26 04:44:48;;;;;;;;;;;6.70;99.90;;;;;;5048152;28;20117;-63
2022/04/26 04:47:14;;;;;;;34.53;19.50;;;6.70;99.90;;;;;;5047833;28;19927;-63
2022/04/26 04:49:40;;;;;;;38.35;20.70;;;6.80;99.90;;;;;;5045547;28;20433;-63
2022/04/26 04:52:06;;;;;;;35.50;21.38;;;6.70;99.90;;;;;;5047076;28;20413;-65
2022/04/26 04:54:31;;;;;;;40.45;21.77;;;6.70;99.90;;;;;;5047073;28;20668;-65
2022/04/26 04:56:57;;;;;;;;;;;6.70;99.90;;;;;;5048115;28;20065;-64
2022/04/26 04:59:23;;;;;;;36.05;20.60;;;6.80;99.90;;;;;;5047749;28;19920;-64
2022/04/26 05:01:48;;;;;;;;;;;6.80;99.90;;;;;;5047223;28;20067;-64
2022/04/26 05:04:14;;;;;;;44.28;22.88;;;6.70;99.90;;;;;;5046548;28;19927;-65
2022/04/26 05:06:39;;;;;;;;;;;6.80;99.90;;;;;;5046468;28;20044;-66
2022/04/26 05:09:05;;;;;;;41.63;20.70;;;6.80;99.90;;;;;;5046704;28;19920;-64
2022/04/26 05:11:31;;;;;;;;;;;6.90;99.90;;;;;;5048347;28;20573;-63
2022/04/26 05:13:56;;;;;;;33.25;18.85;;;6.90;99.90;;;;;;5047433;28;19928;-65
2022/04/26 05:16:22;;;;;;;35.20;19.10;;;7.00;99.90;;;;;;5047067;28;20738;-64
2022/04/26 05:18:47;;;;;;;34.00;19.15;;;7.00;99.90;;;;;;5047788;28;20416;-65
2022/04/26 05:21:13;;;;;;;;;;;7.00;99.90;;;;;;5048766;28;20447;-65
2022/04/26 05:26:23;;;;;;;39.00;21.20;;;7.00;99.90;;;;;;5038180;28;20041;-64
2022/04/26 05:28:49;;;;;;;;;;;7.00;99.90;;;;;;5044631;28;20052;-64
2022/04/26 05:31:14;;;;;;;40.17;20.75;;;7.00;99.90;;;;;;5049901;28;19921;-64
2022/04/26 05:33:40;;;;;;;;;;;7.00;99.90;;;;;;5046421;28;20132;-65
2022/04/26 05:36:06;;;;;;;38.55;19.25;;;7.00;99.90;;;;;;5050500;28;19921;-65
2022/04/26 05:38:31;;;;;;;;;;;7.00;99.90;;;;;;5047700;28;20040;-65
2022/04/26 05:40:57;;;;;;;37.97;19.13;;;7.00;99.90;;;;;;5050989;28;19920;-66
2022/04/26 05:43:23;;;;;;;35.17;19.10;;;7.10;99.90;;;;;;5055987;28;20790;-64
2022/04/26 05:45:48;;;;;;;38.88;18.75;;;7.00;99.90;;;;;;5051975;28;20404;-64
2022/04/26 05:48:14;;;;;;;;;;;7.10;99.90;;;;;;5054446;28;20037;-66
2022/04/26 05:50:41;;;;;;;33.22;18.05;;;7.20;99.90;;;;;;5055751;28;19917;-64
2022/04/26 05:53:06;;;;;;;39.03;20.85;;;7.20;99.90;;;;;;5055317;28;20047;-64
2022/04/26 05:55:32;;;;;;;;;;;7.20;99.90;;;;;;5046965;28;20044;-66
2022/04/26 05:57:58;;;;;;;32.13;17.60;;;7.30;99.90;;;;;;5066491;28;20018;-65
2022/04/26 06:00:23;;;;;;;38.75;19.73;;;7.40;99.90;;;;;;5059508;28;20067;-66
2022/04/26 06:02:49;;;;;;;36.60;19.05;;;7.40;99.90;;;;;;5040717;28;20044;-64
2022/04/26 06:05:14;;;;;;;;;;;7.50;99.90;;;;;;5045564;28;20119;-63
2022/04/26 06:07:40;;;;;;;28.85;14.43;;;7.50;99.90;;;;;;5045869;28;20415;-64
2022/04/26 06:10:06;;;;;;;;;;;7.60;99.90;;;;;;5046157;28;20592;-64
2022/04/26 06:12:31;;;;;;;27.90;15.00;;;7.70;99.90;;;;;;5045930;28;19916;-65
2022/04/26 06:14:57;;;;;;;;;;;7.80;99.90;;;;;;5045472;28;20489;-65
2022/04/26 06:17:23;;;;;;;27.75;16.08;;;8.00;99.90;;;;;;5044526;28;20430;-65
2022/04/26 06:19:49;;;;;;;38.42;20.40;;;8.10;99.90;;;;;;5046303;28;20478;-66
2022/04/26 06:22:15;;;;;;;;;;;8.20;99.90;;;;;;5044539;28;20037;-66
2022/04/26 06:24:40;;;;;;;25.13;14.20;;;8.40;99.90;;;;;;5043011;28;19916;-65
2022/04/26 06:27:06;;;;;;;;;;;8.80;99.90;;;;;;5045590;28;20604;-65
2022/04/26 06:29:32;;;;;;;21.27;13.30;;;10.20;99.90;;;;;;5044815;28;19978;-66
2022/04/26 06:31:58;;;;;;;26.38;14.07;;;11.80;99.90;;;;;;5042052;28;20124;-68
2022/04/26 06:34:24;;;;;;;21.08;12.25;;;12.20;99.90;;;;;;5043109;28;20080;-68
2022/04/26 06:36:50;;;;;;;21.77;13.45;;;12.00;99.90;;;;;;5041631;28;20040;-66
2022/04/26 06:39:16;;;;;;;;;;;12.30;99.90;;;;;;5045676;28;20036;-67
2022/04/26 06:41:42;;;;;;;18.52;12.20;;;12.30;99.90;;;;;;5045757;28;19922;-66
2022/04/26 06:44:08;;;;;;;20.27;12.18;;;11.90;99.90;;;;;;5045492;28;20158;-68
2022/04/26 06:46:36;;;;;;;;;;;11.40;99.90;;;;;;5045882;28;20132;-67
2022/04/26 06:49:05;;;;;;;22.05;12.73;;;11.00;99.90;;;;;;5042515;28;20039;-66
2022/04/26 06:51:40;;;;;;;21.30;13.65;;;10.70;99.90;;;;;;5045087;28;20401;-65
2022/04/26 06:54:09;;;;;;;22.42;12.60;;;10.20;99.90;;;;;;5044365;28;20063;-65
2022/04/26 06:56:35;;;;;;;26.42;14.93;;;10.10;99.90;;;;;;5044004;28;20048;-66
2022/04/26 06:59:00;;;;;;;;;;;10.10;99.90;;;;;;5043354;28;20047;-66
2022/04/26 07:01:26;;;;;;;21.08;12.60;;;10.10;99.90;;;;;;5043768;28;19921;-65
2022/04/26 07:03:52;;;;;;;;;;;10.10;99.90;;;;;;5054122;28;20441;-66
2022/04/26 07:06:17;;;;;;;21.63;13.57;;;10.40;99.90;;;;;;5086151;28;19968;-65
2022/04/26 07:08:43;;;;;;;;;;;10.40;99.90;;;;;;5054868;28;20650;-66
2022/04/26 07:11:14;;;;;;;19.48;13.13;;;10.50;99.90;;;;;;5054865;28;20556;-66
2022/04/26 07:13:43;;;;;;;20.70;12.40;;;10.50;99.90;;;;;;5043066;28;20049;-66
2022/04/26 07:16:09;;;;;;;19.50;11.82;;;10.50;99.90;;;;;;5074439;28;20049;-67
2022/04/26 07:18:34;;;;;;;;;;;10.70;99.90;;;;;;5043072;28;20523;-66
2022/04/26 07:21:00;;;;;;;19.20;10.75;;;10.90;99.90;;;;;;5043210;28;20304;-66
2022/04/26 07:23:25;;;;;;;;;;;11.20;99.90;;;;;;5042094;28;20042;-65
2022/04/26 07:25:52;;;;;;;19.98;10.90;;;11.00;99.90;;;;;;5044748;28;19927;-67
2022/04/26 07:28:19;;;;;;;19.50;12.23;;;11.20;99.90;;;;;;5047267;28;20583;-67
2022/04/26 07:30:45;;;;;;;20.10;12.73;;;11.20;99.90;;;;;;5048496;28;20037;-65
2022/04/26 07:35:56;;;;;;;20.58;12.82;;;11.50;99.90;;;;;;5048683;28;20045;-65
2022/04/26 07:38:22;;;;;;;21.33;13.23;;;11.50;99.90;;;;;;5049663;28;20131;-68
2022/04/26 07:40:47;;;;;;;;;;;11.60;99.90;;;;;;5048311;28;20610;-65
2022/04/26 07:43:13;;;;;;;24.02;14.85;;;11.40;99.90;;;;;;5048903;28;19929;-65
2022/04/26 07:45:39;;;;;;;;;;;11.20;99.90;;;;;;5049401;28;20041;-64
2022/04/26 07:48:06;;;;;;;23.95;14.00;;;10.80;99.90;;;;;;5049177;28;19921;-66
2022/04/26 07:50:33;;;;;;;21.60;13.52;;;10.80;99.90;;;;;;5050168;28;20090;-65
2022/04/26 07:53:00;;;;;;;23.48;14.95;;;10.80;99.90;;;;;;5049169;28;20033;-66
2022/04/26 07:55:27;;;;;;;26.02;15.32;;;10.70;99.90;;;;;;5041580;28;20045;-65
2022/04/26 07:57:52;;;;;;;23.85;14.57;;;10.60;99.90;;;;;;5048718;28;20036;-65
2022/04/26 08:00:18;;;;;;;;;;;10.40;99.90;;;;;;5048487;28;20120;-67
2022/04/26 08:02:44;;;;;;;24.70;14.32;;;10.30;99.90;;;;;;5055634;28;19969;-68
2022/04/26 08:05:09;;;;;;;;;;;10.30;99.90;;;;;;5048890;28;20051;-67
2022/04/26 08:07:39;;;;;;;26.23;15.50;;;10.20;99.90;;;;;;5048166;28;19936;-66
2022/04/26 08:10:09;;;;;;;29.45;17.17;;;10.10;99.90;;;;;;5046875;28;20047;-67
2022/04/26 08:12:35;;;;;;;28.45;17.15;;;9.90;99.90;;;;;;5048913;28;20041;-66
2022/04/26 08:15:01;;;;;;;33.03;17.52;;;9.80;99.90;;;;;;5046987;28;20056;-66
2022/04/26 08:17:26;;;;;;;;;;;9.80;99.90;;;;;;5046396;28;20044;-67
2022/04/26 08:19:52;;;;;;;34.20;19.30;;;9.70;99.90;;;;;;5048592;28;19921;-68
2022/04/26 08:22:17;;;;;;;;;;;9.60;99.90;;;;;;5048417;28;20039;-64
2022/04/26 08:27:30;;;;;;;34.83;21.27;;;9.70;99.90;;;;;;5045400;28;20045;-67
2022/04/26 08:29:58;;;;;;;34.55;19.30;;;9.70;99.90;;;;;;5047449;28;20045;-65
2022/04/26 08:32:28;;;;;;;37.50;20.85;;;9.70;99.90;;;;;;5047598;28;20049;-67
2022/04/26 08:34:54;;;;;;;34.03;19.42;;;9.80;99.90;;;;;;5046506;28;20060;-64
2022/04/26 08:37:20;;;;;;;38.28;21.02;;;9.70;99.90;;;;;;5041193;28;20954;-65
2022/04/26 08:39:46;;;;;;;;;;;9.90;99.90;;;;;;5044021;28;20049;-65
2022/04/26 08:42:12;;;;;;;34.05;20.38;;;9.90;99.90;;;;;;5046479;28;19920;-65
2022/04/26 08:44:38;;;;;;;;;;;9.80;99.90;;;;;;5048785;28;20036;-65
2022/04/26 08:52:51;;;;;;;31.13;19.02;;;9.80;99.90;;;;;;5042061;28;20041;-66
2022/04/26 08:55:17;;;;;;;36.35;17.77;;;10.10;99.90;;;;;;5053924;28;20032;-66
2022/04/26 08:57:43;;;;;;;29.85;17.77;;;10.10;99.90;;;;;;5052995;28;20052;-66
2022/04/26 09:00:11;;;;;;;28.48;17.35;;;10.20;99.90;;;;;;5051582;28;20529;-66
2022/04/26 09:02:39;;;;;;;32.15;17.85;;;10.30;99.90;;;;;;5057725;28;20804;-66
2022/04/26 09:05:14;;;;;;;27.27;17.55;;;10.20;99.90;;;;;;5053756;28;20032;-66
2022/04/26 09:07:44;;;;;;;29.27;18.25;;;10.20;99.90;;;;;;5080716;28;20580;-66
2022/04/26 09:10:15;;;;;;;27.63;18.27;;;10.20;99.90;;;;;;5046663;28;20071;-67
2022/04/26 09:13:01;;;;;;;27.83;16.90;;;10.20;99.90;;;;;;5046378;28;20037;-66
2022/04/26 09:15:38;;;;;;;34.50;18.55;;;10.40;99.90;;;;;;5046282;28;20040;-66
2022/04/26 09:18:30;;;;;;;28.75;17.67;;;10.60;99.90;;;;;;5046564;28;20848;-68
2022/04/26 09:21:05;;;;;;;28.50;17.17;;;10.80;99.90;;;;;;5045011;28;20040;-64
2022/04/26 09:23:32;;;;;;;28.70;18.03;;;10.90;99.90;;;;;;5046158;28;20067;-66
2022/04/26 09:26:09;;;;;;;27.13;16.52;;;10.80;99.90;;;;;;5044024;28;20049;-67
2022/04/26 09:28:58;;;;;;;31.45;18.08;;;10.80;99.90;;;;;;5043927;28;20047;-65
2022/04/26 09:31:29;;;;;;;27.65;17.35;;;10.80;99.90;;;;;;5044003;28;20049;-64
2022/04/26 09:34:04;;;;;;;29.48;18.13;;;10.90;99.90;;;;;;5046950;28;20207;-65
2022/04/26 09:36:35;;;;;;;32.35;18.42;;;10.80;99.90;;;;;;5045818;28;20456;-66
2022/04/26 09:39:02;;;;;;;30.98;19.65;;;10.90;99.90;;;;;;5047076;28;20063;-66
2022/04/26 09:41:29;;;;;;;31.35;18.00;;;10.70;99.90;;;;;;5046269;28;20047;-65
2022/04/26 09:43:57;;;;;;;30.17;18.13;;;10.70;99.90;;;;;;5046189;28;20071;-67
2022/04/26 09:46:24;;;;;;;28.58;18.25;;;10.70;99.90;;;;;;5046474;28;20157;-65
2022/04/26 09:48:53;;;;;;;30.50;18.73;;;10.60;99.90;;;;;;5045357;28;20524;-66
2022/04/26 09:51:19;;;;;;;29.58;19.25;;;10.60;99.90;;;;;;5044749;28;20040;-65
2022/04/26 09:53:45;;;;;;;;;;;10.70;99.90;;;;;;5046288;28;20047;-66
2022/04/26 09:56:13;;;;;;;30.80;19.02;;;10.60;99.90;;;;;;5041388;28;19916;-67
2022/04/26 09:58:40;;;;;;;29.38;18.38;;;10.60;99.90;;;;;;5045653;28;20541;-68
2022/04/26 10:01:05;;;;;;;36.67;19.60;;;10.70;99.90;;;;;;5044530;28;20076;-66
2022/04/26 10:03:34;;;;;;;;;;;10.90;99.90;;;;;;5061148;28;20121;-67
2022/04/26 10:06:04;;;;;;;30.05;17.60;;;10.80;99.90;;;;;;5052127;28;19928;-65
2022/04/26 10:08:32;;;;;;;22.73;14.70;;;11.00;99.90;;;;;;5046621;28;20116;-65
2022/04/26 10:11:00;;;;;;;25.98;16.40;;;11.00;99.90;;;;;;5045354;28;20049;-65
2022/04/26 10:13:38;;;;;;;25.30;15.77;;;11.10;99.90;;;;;;5047807;28;20124;-68
2022/04/26 10:16:19;;;;;;;27.60;15.88;;;11.20;99.90;;;;;;5045157;28;20107;-66
2022/04/26 10:18:47;;;;;;;23.08;14.38;;;11.30;99.90;;;;;;5046232;28;20056;-65
2022/04/26 10:21:38;;;;;;;23.15;14.50;;;11.50;99.90;;;;;;5047234;28;20041;-65
2022/04/26 10:24:20;;;;;;;22.60;14.45;;;11.90;99.90;;;;;;5045105;28;20041;-67
2022/04/26 10:26:47;;;;;;;20.85;13.13;;;11.90;99.90;;;;;;5045596;28;20148;-67
2022/04/26 10:29:37;;;;;;;21.67;13.48;;;12.00;99.90;;;;;;5045896;28;20761;-64
2022/04/26 10:32:03;;;;;;;21.20;13.80;;;11.90;99.90;;;;;;5046799;28;20091;-66
2022/04/26 10:34:34;;;;;;;23.48;14.68;;;11.90;99.90;;;;;;5045006;28;20120;-66
2022/04/26 10:37:21;;;;;;;24.17;13.95;;;11.60;99.90;;;;;;5045448;28;20056;-65
2022/04/26 10:39:58;;;;;;;22.30;14.20;;;11.60;99.90;;;;;;5031412;28;20037;-66
2022/04/26 10:42:29;;;;;;;24.08;14.60;;;11.60;99.90;;;;;;5045455;28;20049;-67
2022/04/26 10:45:06;;;;;;;23.88;14.88;;;11.40;99.90;;;;;;5046101;28;20047;-65
2022/04/26 10:47:32;;;;;;;24.95;15.30;;;11.50;99.90;;;;;;5045258;28;20041;-65
2022/04/26 10:49:58;;;;;;;;;;;11.40;99.90;;;;;;5046608;28;20055;-65
2022/04/26 10:52:34;;;;;;;23.02;14.45;;;11.20;99.90;;;;;;5045743;28;20335;-65
2022/04/26 10:55:03;;;;;;;24.70;14.60;;;11.20;99.90;;;;;;5046781;28;20047;-65
2022/04/26 10:57:37;;;;;;;22.38;13.85;;;11.20;99.90;;;;;;5046219;28;20045;-64
2022/04/26 11:00:17;;;;;;;22.08;14.98;;;11.10;99.90;;;;;;5045971;28;20045;-64
2022/04/26 11:02:46;;;;;;;22.42;14.23;;;11.00;99.90;;;;;;5043081;28;20052;-65
2022/04/26 11:05:16;;;;;;;25.88;16.50;;;11.10;99.90;;;;;;5047237;28;20064;-65
2022/04/26 11:07:44;;;;;;;22.55;14.30;;;11.10;99.90;;;;;;5045337;28;20068;-66
2022/04/26 11:10:13;;;;;;;19.90;13.30;;;11.30;99.90;;;;;;5044757;28;20033;-66
2022/04/26 11:12:39;;;;;;;22.30;15.20;;;11.50;99.90;;;;;;5044629;28;20041;-66
2022/04/26 11:15:25;;;;;;;26.50;15.88;;;11.60;99.90;;;;;;5045101;28;20095;-66
2022/04/26 11:17:52;;;;;;;20.52;14.32;;;11.50;99.90;;;;;;5044668;28;20065;-66
2022/04/26 11:20:21;;;;;;;25.90;15.18;;;11.50;99.90;;;;;;5044405;28;20091;-67
2022/04/26 11:27:59;;;;;;;21.73;13.75;;;11.80;99.90;;;;;;5043364;28;20546;-67
2022/04/26 11:28:30;;;;;;;20.38;12.82;;;12.00;99.90;;;;;;5041400;28;20041;-65
2022/04/26 11:30:56;;;;;;;;;;;11.70;99.90;;;;;;5044792;28;20055;-64
2022/04/26 11:33:23;;;;;;;18.52;12.02;;;11.60;99.90;;;;;;5044803;28;19921;-65
2022/04/26 11:35:57;;;;;;;24.52;13.23;;;11.60;99.90;;;;;;5044898;28;20476;-66
2022/04/26 11:38:23;;;;;;;22.20;13.63;;;11.40;99.90;;;;;;5045235;28;20086;-63
2022/04/26 11:40:51;;;;;;;28.95;13.70;;;11.40;99.90;;;;;;5044369;28;20033;-66
2022/04/26 11:43:19;;;;;;;17.60;11.80;;;11.70;99.70;;;;;;5044580;28;20049;-66
2022/04/26 11:45:48;;;;;;;17.23;11.55;;;11.80;99.90;;;;;;5041969;28;20052;-65
2022/04/26 11:48:16;;;;;;;21.38;12.40;;;12.10;99.90;;;;;;5044650;28;20052;-65
2022/04/26 11:50:43;;;;;;;23.85;12.48;;;12.20;99.90;;;;;;5044852;28;20088;-60
2022/04/26 11:53:11;;;;;;;20.38;13.23;;;12.30;99.90;;;;;;5044132;28;20041;-66
2022/04/26 11:55:52;;;;;;;21.83;13.48;;;12.30;99.90;;;;;;5039758;28;20127;-64
2022/04/26 11:58:21;;;;;;;18.73;12.82;;;12.30;99.90;;;;;;5043523;28;20040;-68
2022/04/26 12:00:55;;;;;;;24.13;14.85;;;12.60;99.90;;;;;;5073994;28;20673;-66
2022/04/26 12:03:24;;;;;;;18.95;11.43;;;12.50;99.40;;;;;;5037290;28;20037;-65
2022/04/26 12:06:00;;;;;;;19.35;11.63;;;12.40;98.60;;;;;;5041662;28;20040;-65
2022/04/26 12:08:27;;;;;;;24.60;12.75;;;12.40;99.20;;;;;;5043696;28;20052;-65
2022/04/26 12:10:52;;;;;;;17.40;11.63;;;12.30;99.00;;;;;;5042756;28;20060;-64
2022/04/26 12:13:30;;;;;;;;;;;12.20;98.10;;;;;;5043480;28;20037;-65
2022/04/26 12:15:57;;;;;;;24.00;12.98;;;12.20;99.50;;;;;;5046770;28;19917;-64
2022/04/26 12:18:23;;;;;;;21.00;13.15;;;12.10;99.60;;;;;;5047144;28;20273;-65
2022/04/26 12:20:56;;;;;;;;;;;12.00;98.80;;;;;;5048399;28;20645;-64
2022/04/26 12:23:24;;;;;;;17.08;10.70;;;12.10;99.40;;;;;;5047775;28;20437;-66
2022/04/26 12:26:03;;;;;;;18.52;11.48;;;12.10;99.90;;;;;;5047563;28;20041;-65
2022/04/26 12:28:29;;;;;;;18.08;11.68;;;12.20;99.90;;;;;;5048684;28;20545;-65
2022/04/26 12:30:55;;;;;;;17.92;11.43;;;12.30;99.90;;;;;;5046979;28;20115;-65
2022/04/26 12:33:50;;;;;;;23.73;13.13;;;12.20;99.10;;;;;;5048008;28;20734;-64
2022/04/26 12:36:16;;;;;;;18.20;11.63;;;12.20;99.60;;;;;;5048771;28;20055;-67
2022/04/26 12:38:50;;;;;;;;;;;12.30;99.90;;;;;;5047952;28;20128;-64
2022/04/26 12:41:15;;;;;;;20.67;12.77;;;12.30;99.60;;;;;;5048125;28;19917;-66
2022/04/26 12:43:43;;;;;;;;;;;12.20;99.90;;;;;;5047428;28;20561;-64
2022/04/26 12:46:08;;;;;;;;;;;12.00;99.90;;;;;;5048140;28;19978;-65
2022/04/26 12:51:27;;;;;;;18.80;11.55;;;12.10;99.90;;;;;;5045388;28;20107;-65
2022/04/26 12:54:05;;;;;;;18.65;10.73;;;12.30;99.90;;;;;;5079304;28;20041;-66
2022/04/26 12:56:31;;;;;;;19.35;11.50;;;12.50;99.90;;;;;;5047091;28;20053;-67
2022/04/26 12:58:56;;;;;;;;;;;12.60;99.90;;;;;;5047718;28;20110;-65
2022/04/26 13:01:22;;;;;;;16.70;11.15;;;12.50;99.90;;;;;;5046694;28;19921;-63
2022/04/26 13:03:47;;;;;;;16.75;10.48;;;12.40;99.90;;;;;;5047721;28;20684;-66
2022/04/26 13:06:15;;;;;;;16.15;10.70;;;12.40;99.90;;;;;;5082391;28;20120;-66
2022/04/26 13:08:43;;;;;;;14.40;10.15;;;12.50;99.90;;;;;;5046709;28;20055;-65
2022/04/26 13:11:08;;;;;;;13.57;10.05;;;12.60;99.90;;;;;;5047319;28;20048;-64
2022/04/26 13:13:35;;;;;;;;;;;12.50;99.90;;;;;;5047431;28;20350;-65
2022/04/26 13:16:01;;;;;;;16.73;9.70;;;12.60;99.90;;;;;;5045979;28;20628;-65
2022/04/26 13:18:28;;;;;;;19.20;10.52;;;12.70;99.90;;;;;;5044449;28;20042;-65
2022/04/26 13:20:56;;;;;;;18.15;10.90;;;12.70;99.90;;;;;;5047411;28;20335;-65
2022/04/26 13:23:22;;;;;;;15.73;10.05;;;12.70;99.90;;;;;;5046791;28;20098;-66
2022/04/26 13:25:47;;;;;;;16.70;10.90;;;12.80;99.90;;;;;;5046692;28;20086;-64
2022/04/26 13:28:13;;;;;;;;;;;12.70;99.90;;;;;;5047228;28;20041;-65
2022/04/26 13:30:39;;;;;;;17.13;10.40;;;12.50;99.90;;;;;;5046175;28;19921;-66
2022/04/26 13:33:05;;;;;;;;;;;12.50;99.90;;;;;;5046595;28;20541;-63
2022/04/26 13:35:30;;;;;;;15.38;10.48;;;12.70;99.90;;;;;;5048821;28;19963;-65
2022/04/26 13:37:58;;;;;;;;;;;12.70;99.90;;;;;;5046416;28;20145;-67
2022/04/26 13:40:24;;;;;;;16.90;10.63;;;12.80;99.90;;;;;;5046599;28;19975;-66
2022/04/26 13:42:51;;;;;;;14.27;10.13;;;12.70;99.90;;;;;;5047073;28;20067;-64
2022/04/26 13:45:17;;;;;;;18.90;10.23;;;12.70;99.90;;;;;;5046174;28;20151;-65
2022/04/26 13:47:43;;;;;;;14.70;10.20;;;12.70;99.80;;;;;;5046849;28;20546;-66
2022/04/26 13:50:08;;;;;;;;;;;12.80;99.90;;;;;;5046867;28;20052;-66
2022/04/26 13:52:34;;;;;;;14.15;9.57;;;12.70;99.90;;;;;;5046045;28;19921;-67
2022/04/26 13:55:00;;;;;;;;;;;12.70;99.70;;;;;;5046437;28;20043;-66
2022/04/26 13:57:25;;;;;;;17.92;9.00;;;12.70;99.90;;;;;;5046030;28;20384;-66
2022/04/26 13:59:51;;;;;;;14.40;8.93;;;12.90;99.70;;;;;;5046186;28;20056;-65
2022/04/26 14:02:19;;;;;;;14.60;9.18;;;12.90;98.80;;;;;;5044896;28;20393;-65
2022/04/26 14:04:47;;;;;;;15.75;10.13;;;13.00;98.90;;;;;;5046197;28;20095;-66
2022/04/26 14:07:14;;;;;;;13.95;9.35;;;12.80;97.40;;;;;;5046202;28;20040;-67
2022/04/26 14:09:40;;;;;;;13.50;9.50;;;12.70;97.80;;;;;;5046317;28;20044;-66
2022/04/26 14:12:08;;;;;;;20.27;13.60;;;12.40;98.70;;;;;;5045809;28;20762;-66
2022/04/26 14:22:50;;;;;;;16.25;10.32;;;10.60;99.90;;;;;;5044974;28;20066;-65
2022/04/26 14:25:15;;;;;;;;;;;9.40;99.90;;;;;;5046483;28;20745;-65
2022/04/26 14:27:44;;;;;;;18.23;12.38;;;9.00;99.90;;;;;;5045846;28;20373;-64
2022/04/26 14:30:12;;;;;;;19.38;12.98;;;8.80;99.90;;;;;;5045205;28;20506;-65
2022/04/26 14:32:37;;;;;;;20.27;12.98;;;8.70;99.90;;;;;;5045132;28;20052;-67
2022/04/26 14:35:04;;;;;;;;;;;8.60;99.90;;;;;;5046194;28;20040;-65
2022/04/26 14:37:29;;;;;;;22.90;13.77;;;8.60;99.90;;;;;;5045283;28;20553;-64
2022/04/26 14:39:55;;;;;;;;;;;8.70;99.90;;;;;;5046226;28;20071;-66
2022/04/26 14:42:21;;;;;;;22.25;13.57;;;8.70;99.90;;;;;;5045125;28;19947;-64
2022/04/26 14:44:46;;;;;;;;;;;8.70;99.90;;;;;;5043084;28;20132;-64
2022/04/26 14:47:12;;;;;;;21.17;12.90;;;8.70;99.90;;;;;;5045370;28;20008;-66
2022/04/26 14:49:38;;;;;;;;;;;8.70;99.90;;;;;;5046492;28;20044;-65
2022/04/26 14:52:04;;;;;;;21.00;13.60;;;8.60;99.90;;;;;;5045790;28;19917;-64
2022/04/26 14:54:30;;;;;;;24.88;14.30;;;8.60;99.90;;;;;;5045540;28;20047;-65
2022/04/26 14:56:56;;;;;;;;;;;8.60;99.90;;;;;;5045698;28;20052;-64
2022/04/26 14:59:25;;;;;;;24.65;15.05;;;8.60;99.90;;;;;;5045415;28;19924;-65
2022/04/26 15:01:52;;;;;;;26.90;15.00;;;8.50;99.90;;;;;;5044299;28;20045;-65
2022/04/26 15:04:19;;;;;;;28.50;15.40;;;8.40;99.90;;;;;;5048718;28;20049;-67
2022/04/26 15:06:45;;;;;;;24.75;14.57;;;8.40;99.90;;;;;;5045038;28;20106;-66
2022/04/26 15:17:25;;;;;;;23.35;14.10;;;8.80;99.90;;;;;;5042933;28;20041;-68
2022/04/26 15:19:51;;;;;;;;;;;8.90;99.90;;;;;;5044072;28;20473;-66
2022/04/26 15:22:19;;;;;;;23.05;13.13;;;8.90;99.90;;;;;;5044808;28;19920;-65
2022/04/26 15:24:48;;;;;;;25.33;13.95;;;9.00;99.90;;;;;;5044959;28;20048;-67
2022/04/26 15:27:15;;;;;;;22.30;14.02;;;8.90;99.90;;;;;;5044591;28;20063;-65
2022/04/26 15:29:42;;;;;;;23.13;12.18;;;9.00;99.90;;;;;;5044870;28;20052;-66
2022/04/26 15:32:08;;;;;;;18.63;11.63;;;9.00;99.90;;;;;;5042722;28;20049;-66
2022/04/26 15:34:34;;;;;;;19.55;12.43;;;8.80;99.90;;;;;;5045624;28;20036;-65
2022/04/26 15:37:01;;;;;;;22.38;12.70;;;8.80;99.90;;;;;;5043830;28;20129;-67
2022/04/26 15:39:28;;;;;;;18.27;10.95;;;8.80;99.90;;;;;;5046102;28;20448;-66
2022/04/26 15:41:54;;;;;;;16.98;10.73;;;8.90;99.90;;;;;;5045105;28;20048;-65
2022/04/26 15:44:20;;;;;;;;;;;8.90;99.90;;;;;;5045142;28;20045;-65
2022/04/26 15:46:49;;;;;;;16.58;10.13;;;9.00;99.90;;;;;;5044887;28;19925;-65
2022/04/26 15:49:19;;;;;;;17.42;11.25;;;9.10;99.90;;;;;;5046858;28;20041;-65
2022/04/26 15:51:47;;;;;;;15.23;10.75;;;9.20;99.90;;;;;;5047320;28;20041;-66
2022/04/26 15:54:14;;;;;;;23.85;12.75;;;9.30;99.90;;;;;;5048193;28;20049;-65
2022/04/26 15:56:41;;;;;;;14.40;9.15;;;9.40;99.90;;;;;;5046712;28;20072;-67
2022/04/26 15:59:08;;;;;;;15.25;9.10;;;9.30;99.90;;;;;;5045355;28;20041;-63
2022/04/26 16:01:35;;;;;;;14.63;9.73;;;9.30;99.90;;;;;;5043461;28;20036;-64
2022/04/26 16:04:00;;;;;;;14.80;9.65;;;9.30;99.90;;;;;;5047245;28;20045;-64
2022/04/26 16:06:26;;;;;;;;;;;9.30;99.90;;;;;;5048206;28;20110;-63
2022/04/26 16:20:28;;;;;;;12.15;8.52;;;9.40;99.90;;;;;;5050431;28;19924;-64
2022/04/26 16:22:35;;;;;;;14.75;9.20;;;9.50;99.90;;;;;;5046743;28;20041;-64
2022/04/26 16:25:01;;;;;;;10.13;7.28;;;9.40;99.90;;;;;;5048043;28;20164;-64
2022/04/26 16:27:27;;;;;;;;;;;9.30;99.90;;;;;;5047981;28;20132;-65
2022/04/26 16:29:52;;;;;;;23.55;8.63;;;9.30;99.90;;;;;;5048145;28;19924;-65
2022/04/26 16:32:18;;;;;;;;;;;9.40;99.90;;;;;;5062630;28;20047;-65
2022/04/26 16:34:43;;;;;;;10.70;7.68;;;9.40;99.90;;;;;;5056379;28;19925;-66
2022/04/26 16:37:09;;;;;;;;;;;9.50;99.90;;;;;;5053215;28;20040;-65
2022/04/26 16:39:34;;;;;;;10.48;7.25;;;9.60;99.90;;;;;;5048227;28;19917;-66
2022/04/26 16:42:00;;;;;;;;;;;9.60;99.90;;;;;;5053686;28;20563;-65
2022/04/26 16:44:25;;;;;;;13.85;7.95;;;9.60;99.90;;;;;;5046556;28;20546;-65
2022/04/26 16:46:51;;;;;;;;;;;9.50;99.90;;;;;;5051674;28;20502;-64
2022/04/26 16:49:16;;;;;;;12.10;7.80;;;9.50;99.90;;;;;;5047980;28;20463;-65
2022/04/26 16:51:42;;;;;;;;;;;9.50;99.90;;;;;;5050181;28;20036;-64
2022/04/26 16:54:07;;;;;;;11.82;8.25;;;9.40;99.90;;;;;;5055509;28;19924;-65
2022/04/26 16:56:33;;;;;;;;;;;9.40;99.90;;;;;;5048433;28;20041;-65
2022/04/26 16:58:58;;;;;;;11.40;7.53;;;9.40;99.90;;;;;;5050549;28;19920;-64
2022/04/26 17:01:24;;;;;;;;;;;9.30;99.90;;;;;;5046424;28;20846;-65
2022/04/26 17:03:49;;;;;;;12.52;7.95;;;9.30;99.90;;;;;;5047216;28;20304;-64
2022/04/26 17:06:15;;;;;;;;;;;9.10;99.90;;;;;;5051958;28;20444;-64
2022/04/26 17:08:41;;;;;;;13.82;9.50;;;9.20;99.90;;;;;;5047021;28;19927;-65
2022/04/26 17:13:50;;;;;;;12.98;9.30;;;8.90;99.90;;;;;;5046614;28;20029;-65
2022/04/26 17:16:16;;;;;;;;;;;8.90;99.90;;;;;;5041368;28;20405;-65
2022/04/26 17:18:42;;;;;;;16.02;10.40;;;8.80;99.90;;;;;;5047243;28;20312;-65
2022/04/26 17:21:08;;;;;;;;;;;8.80;99.90;;;;;;5047067;28;20548;-65
2022/04/26 17:23:34;;;;;;;16.05;9.98;;;8.90;99.90;;;;;;5046826;28;19924;-65